createdAt,value
2018-06-30T00:02:30.102Z,20.60
2018-06-30T00:05:02.966Z,6.00
2018-06-30T00:07:35.908Z,20.40
2018-06-30T00:10:09.196Z,22.20
2018-06-30T00:12:42.974Z,23.20
2018-06-30T00:15:15.774Z,18.60
2018-06-30T00:17:48.962Z,20.20
2018-06-30T00:20:21.957Z,23.40
2018-06-30T00:22:54.648Z,23.40
2018-06-30T00:25:26.861Z,20.80
2018-06-30T00:27:59.974Z,24.20
2018-06-30T00:30:32.598Z,21.60
2018-06-30T00:33:05.884Z,21.80
2018-06-30T00:35:38.564Z,19.80
2018-06-30T00:38:11.891Z,23.20
2018-06-30T00:40:44.141Z,21.00
2018-06-30T00:43:16.907Z,19.80
2018-06-30T00:45:49.764Z,16.20
2018-06-30T00:48:22.901Z,18.60
2018-06-30T00:50:55.076Z,23.80
2018-06-30T00:53:27.787Z,23.40
2018-06-30T00:56:00.478Z,22.80
2018-06-30T00:58:33.159Z,24.80
2018-06-30T01:01:05.922Z,22.40
2018-06-30T01:03:38.899Z,16.00
2018-06-30T01:06:11.895Z,25.40
2018-06-30T01:08:44.638Z,19.60
2018-06-30T01:11:17.432Z,19.00
2018-06-30T01:13:51.067Z,21.40
2018-06-30T01:16:23.878Z,22.80
2018-06-30T01:18:56.615Z,19.60
2018-06-30T01:21:29.074Z,23.60
2018-06-30T01:24:01.974Z,24.40
2018-06-30T01:26:34.895Z,24.40
2018-06-30T01:29:08.191Z,22.40
2018-06-30T01:31:41.137Z,27.80
2018-06-30T01:34:14.235Z,23.60
2018-06-30T01:36:46.789Z,21.80
2018-06-30T01:39:18.948Z,25.20
2018-06-30T01:41:51.668Z,23.00
2018-06-30T01:44:24.734Z,25.00
2018-06-30T01:46:57.146Z,26.40
2018-06-30T01:49:29.967Z,24.40
2018-06-30T01:52:03.240Z,28.00
2018-06-30T01:54:35.633Z,33.00
2018-06-30T01:57:08.929Z,34.60
2018-06-30T01:59:42.105Z,28.60
2018-06-30T02:02:14.782Z,33.00
2018-06-30T02:04:47.697Z,29.60
2018-06-30T02:07:20.679Z,33.80
2018-06-30T02:09:53.206Z,44.40
2018-06-30T02:12:25.352Z,33.00
2018-06-30T02:14:58.797Z,33.40
2018-06-30T02:17:30.568Z,36.40
2018-06-30T02:20:02.553Z,30.20
2018-06-30T02:22:35.501Z,35.60
2018-06-30T02:25:08.476Z,31.80
2018-06-30T02:27:40.839Z,32.20
2018-06-30T02:30:13.868Z,36.00
2018-06-30T02:32:46.502Z,34.80
2018-06-30T02:35:18.980Z,32.20
2018-06-30T02:37:51.752Z,37.80
2018-06-30T02:40:25.519Z,30.40
2018-06-30T02:42:58.776Z,32.40
2018-06-30T02:45:31.798Z,37.00
2018-06-30T02:48:04.811Z,35.20
2018-06-30T02:50:38.312Z,30.00
2018-06-30T02:53:11.625Z,32.40
2018-06-30T02:55:44.265Z,36.40
2018-06-30T02:58:17.234Z,38.60
2018-06-30T03:00:50.179Z,41.40
2018-06-30T03:03:23.320Z,45.60
2018-06-30T03:05:56.192Z,38.60
2018-06-30T03:08:28.520Z,39.40
2018-06-30T03:11:02.795Z,34.20
2018-06-30T03:13:35.588Z,35.40
2018-06-30T03:16:08.374Z,44.00
2018-06-30T03:18:40.602Z,43.00
2018-06-30T03:23:33.448Z,39.40
2018-06-30T03:26:06.419Z,42.60
2018-06-30T03:28:39.364Z,47.00
2018-06-30T03:31:12.306Z,47.60
2018-06-30T03:33:45.260Z,50.80
2018-06-30T03:36:17.869Z,47.20
2018-06-30T03:38:50.733Z,47.00
2018-06-30T03:41:22.879Z,47.20
2018-06-30T03:43:55.785Z,46.60
2018-06-30T03:46:28.396Z,50.20
2018-06-30T03:49:01.512Z,42.40
2018-06-30T03:51:34.017Z,48.80
2018-06-30T03:54:06.687Z,43.60
2018-06-30T03:56:38.982Z,42.80
2018-06-30T03:59:12.110Z,45.40
2018-06-30T04:01:45.108Z,40.60
2018-06-30T04:04:18.435Z,39.20
2018-06-30T04:06:52.425Z,41.60
2018-06-30T04:09:25.779Z,42.20
2018-06-30T04:11:59.644Z,43.60
2018-06-30T04:14:32.823Z,37.60
2018-06-30T04:17:05.254Z,41.20
2018-06-30T04:19:39.377Z,43.20
2018-06-30T04:22:12.188Z,39.40
2018-06-30T04:24:44.736Z,38.00
2018-06-30T04:27:17.418Z,41.00
2018-06-30T04:29:49.324Z,29.20
2018-06-30T04:32:22.178Z,42.20
2018-06-30T04:34:55.131Z,45.80
2018-06-30T04:37:27.856Z,46.80
2018-06-30T04:40:00.587Z,48.40
2018-06-30T04:42:34.379Z,41.40
2018-06-30T04:45:08.326Z,45.20
2018-06-30T04:47:40.964Z,46.00
2018-06-30T04:50:13.832Z,44.20
2018-06-30T04:52:46.102Z,45.00
2018-06-30T04:55:19.313Z,45.40
2018-06-30T04:57:51.306Z,44.40
2018-06-30T05:00:23.694Z,39.40
2018-06-30T05:02:56.786Z,43.80
2018-06-30T05:05:29.364Z,49.00
2018-06-30T05:08:02.121Z,43.00
2018-06-30T05:10:34.871Z,43.40
2018-06-30T05:13:08.787Z,47.00
2018-06-30T05:15:41.827Z,43.80
2018-06-30T05:18:13.798Z,43.20
2018-06-30T05:20:47.100Z,39.00
2018-06-30T05:23:19.650Z,41.20
2018-06-30T05:25:52.548Z,43.60
2018-06-30T05:28:25.078Z,40.20
2018-06-30T05:30:57.570Z,41.00
2018-06-30T05:33:30.607Z,38.60
2018-06-30T05:36:04.120Z,38.20
2018-06-30T05:38:36.826Z,40.40
2018-06-30T05:41:09.504Z,44.00
2018-06-30T05:43:42.147Z,42.40
2018-06-30T05:46:15.136Z,42.40
2018-06-30T05:48:48.044Z,33.60
2018-06-30T05:51:21.589Z,42.40
2018-06-30T05:53:54.361Z,35.40
2018-06-30T05:56:27.135Z,38.00
2018-06-30T05:58:59.763Z,33.20
2018-06-30T06:01:32.699Z,36.60
2018-06-30T06:04:05.653Z,37.20
2018-06-30T06:06:39.201Z,34.80
2018-06-30T06:09:13.410Z,34.20
2018-06-30T06:11:46.522Z,35.00
2018-06-30T06:14:21.045Z,31.00
2018-06-30T06:16:54.132Z,34.20
2018-06-30T06:19:27.137Z,33.00
2018-06-30T06:22:00.175Z,35.40
2018-06-30T06:24:32.997Z,36.60
2018-06-30T06:27:06.058Z,38.40
2018-06-30T06:29:38.230Z,37.20
2018-06-30T06:32:11.095Z,37.20
2018-06-30T06:34:43.960Z,33.20
2018-06-30T06:37:17.208Z,32.20
2018-06-30T06:39:49.723Z,29.80
2018-06-30T06:42:24.558Z,32.40
2018-06-30T06:44:57.018Z,33.20
2018-06-30T06:47:29.893Z,32.80
2018-06-30T06:50:03.540Z,33.60
2018-06-30T06:52:36.122Z,31.40
2018-06-30T06:55:09.905Z,27.20
2018-06-30T06:57:42.712Z,35.60
2018-06-30T07:00:15.756Z,35.60
2018-06-30T07:02:48.474Z,28.60
2018-06-30T07:05:21.161Z,26.80
2018-06-30T07:07:54.202Z,31.20
2018-06-30T07:10:26.775Z,30.20
2018-06-30T07:12:59.622Z,29.00
2018-06-30T07:15:32.650Z,23.40
2018-06-30T07:18:08.949Z,29.00
2018-06-30T07:20:41.269Z,31.20
2018-06-30T07:23:13.896Z,28.40
2018-06-30T07:25:46.519Z,26.80
2018-06-30T07:28:19.339Z,30.60
2018-06-30T07:30:56.557Z,33.20
2018-06-30T07:33:31.340Z,27.00
2018-06-30T07:36:04.399Z,28.40
2018-06-30T07:38:36.623Z,28.80
2018-06-30T07:41:09.790Z,30.80
2018-06-30T07:43:44.126Z,27.40
2018-06-30T07:46:22.764Z,28.60
2018-06-30T07:48:55.383Z,21.00
2018-06-30T07:51:27.635Z,26.40
2018-06-30T07:54:03.240Z,28.00
2018-06-30T07:56:35.603Z,30.00
2018-06-30T07:59:08.959Z,31.20
2018-06-30T08:01:41.929Z,28.60
2018-06-30T08:04:14.297Z,32.40
2018-06-30T08:06:47.624Z,29.20
2018-06-30T08:09:20.700Z,30.00
2018-06-30T08:11:54.340Z,32.60
2018-06-30T08:14:27.338Z,31.60
2018-06-30T08:17:00.856Z,27.80
2018-06-30T08:19:34.092Z,27.20
2018-06-30T08:22:06.481Z,32.80
2018-06-30T08:24:39.753Z,30.20
2018-06-30T08:27:12.298Z,27.00
2018-06-30T08:29:45.411Z,28.40
2018-06-30T08:32:18.112Z,31.20
2018-06-30T08:34:51.072Z,25.80
2018-06-30T08:37:24.099Z,28.00
2018-06-30T08:39:56.514Z,31.80
2018-06-30T08:42:29.492Z,29.00
2018-06-30T08:45:02.521Z,25.40
2018-06-30T08:47:35.091Z,29.60
2018-06-30T08:50:07.506Z,24.60
2018-06-30T08:52:40.316Z,28.00
2018-06-30T08:55:13.060Z,24.80
2018-06-30T08:57:45.849Z,28.40
2018-06-30T09:00:18.783Z,23.40
2018-06-30T09:02:51.431Z,24.20
2018-06-30T09:05:24.212Z,20.60
2018-06-30T09:07:56.716Z,25.40
2018-06-30T09:10:29.431Z,28.20
2018-06-30T09:13:02.022Z,22.20
2018-06-30T09:15:34.727Z,23.40
2018-06-30T09:18:09.888Z,24.80
2018-06-30T09:20:43.317Z,22.20
2018-06-30T09:23:16.069Z,22.60
2018-06-30T09:25:49.149Z,22.60
2018-06-30T09:28:21.804Z,22.60
2018-06-30T09:30:54.612Z,22.40
2018-06-30T09:33:27.863Z,22.20
2018-06-30T09:36:00.878Z,22.60
2018-06-30T09:38:33.250Z,25.40
2018-06-30T09:41:06.218Z,19.20
2018-06-30T09:43:38.679Z,22.80
2018-06-30T09:46:14.649Z,24.40
2018-06-30T09:48:47.689Z,24.40
2018-06-30T09:51:21.655Z,20.60
2018-06-30T09:53:55.243Z,20.40
2018-06-30T09:56:28.553Z,22.60
2018-06-30T09:59:01.672Z,24.00
2018-06-30T10:01:34.571Z,21.80
2018-06-30T10:04:07.215Z,25.00
2018-06-30T10:06:40.587Z,22.20
2018-06-30T10:09:13.904Z,25.00
2018-06-30T10:11:47.364Z,19.40
2018-06-30T10:14:24.120Z,22.40
2018-06-30T10:16:57.877Z,19.40
2018-06-30T10:19:30.847Z,23.20
2018-06-30T10:22:05.561Z,22.80
2018-06-30T10:24:38.204Z,21.40
2018-06-30T10:27:10.997Z,22.00
2018-06-30T10:29:43.787Z,25.40
2018-06-30T10:32:16.623Z,26.00
2018-06-30T10:34:49.921Z,23.40
2018-06-30T10:37:23.313Z,25.20
2018-06-30T10:40:01.606Z,25.60
2018-06-30T10:42:34.787Z,22.40
2018-06-30T10:45:07.999Z,20.60
2018-06-30T10:47:41.041Z,27.80
2018-06-30T10:50:14.145Z,23.60
2018-06-30T10:52:47.223Z,27.00
2018-06-30T10:55:20.588Z,25.80
2018-06-30T10:57:53.797Z,24.00
2018-06-30T11:00:26.866Z,22.00
2018-06-30T11:02:59.812Z,25.20
2018-06-30T11:05:32.303Z,19.60
2018-06-30T11:08:05.475Z,21.40
2018-06-30T11:10:38.245Z,20.40
2018-06-30T11:13:11.034Z,20.60
2018-06-30T11:15:43.635Z,28.60
2018-06-30T11:18:16.773Z,24.40
2018-06-30T11:20:49.351Z,23.60
2018-06-30T11:23:22.818Z,24.40
2018-06-30T11:25:55.803Z,26.20
2018-06-30T11:28:28.757Z,23.80
2018-06-30T11:31:01.764Z,25.00
2018-06-30T11:33:34.733Z,25.40
2018-06-30T11:36:07.702Z,22.20
2018-06-30T11:38:40.476Z,26.80
2018-06-30T11:41:12.889Z,26.00
2018-06-30T11:43:50.554Z,26.20
2018-06-30T11:46:23.347Z,23.20
2018-06-30T11:48:57.890Z,25.80
2018-06-30T11:51:29.820Z,23.40
2018-06-30T11:54:02.267Z,20.00
2018-06-30T11:56:35.109Z,24.00
2018-06-30T11:59:08.669Z,26.40
2018-06-30T12:01:41.080Z,26.60
2018-06-30T12:04:13.603Z,26.40
2018-06-30T12:06:46.129Z,20.00
2018-06-30T12:09:19.428Z,23.20
2018-06-30T12:11:52.023Z,22.40
2018-06-30T12:14:24.921Z,27.60
2018-06-30T12:16:58.206Z,21.60
2018-06-30T12:19:31.506Z,25.40
2018-06-30T12:22:04.174Z,24.80
2018-06-30T12:24:38.531Z,26.40
2018-06-30T12:27:11.561Z,25.60
2018-06-30T12:29:44.518Z,27.80
2018-06-30T12:32:17.548Z,25.00
2018-06-30T12:34:50.237Z,26.80
2018-06-30T12:37:22.984Z,24.20
2018-06-30T12:39:55.466Z,25.60
2018-06-30T12:42:29.287Z,26.60
2018-06-30T12:45:02.544Z,27.00
2018-06-30T12:47:35.790Z,32.20
2018-06-30T12:50:09.160Z,31.00
2018-06-30T12:52:42.347Z,26.60
2018-06-30T12:55:16.157Z,28.60
2018-06-30T12:57:49.269Z,30.20
2018-06-30T13:00:22.086Z,34.20
2018-06-30T13:02:55.227Z,33.40
2018-06-30T13:05:28.075Z,33.40
2018-06-30T13:08:01.050Z,36.40
2018-06-30T13:10:33.186Z,33.80
2018-06-30T13:13:06.311Z,39.60
2018-06-30T13:15:39.173Z,40.80
2018-06-30T13:18:12.041Z,41.00
2018-06-30T13:20:45.541Z,38.00
2018-06-30T13:23:18.591Z,40.00
2018-06-30T13:25:51.810Z,39.20
2018-06-30T13:28:25.365Z,42.00
2018-06-30T13:30:58.482Z,36.20
2018-06-30T13:33:31.939Z,38.60
2018-06-30T13:36:05.223Z,45.20
2018-06-30T13:38:38.238Z,36.40
2018-06-30T13:41:11.926Z,38.80
2018-06-30T13:43:45.437Z,38.00
2018-06-30T13:46:18.442Z,44.20
2018-06-30T13:48:51.547Z,45.00
2018-06-30T13:51:24.708Z,42.00
2018-06-30T13:53:57.709Z,44.40
2018-06-30T13:56:30.826Z,44.60
2018-06-30T13:59:03.916Z,42.20
2018-06-30T14:01:35.951Z,39.80
2018-06-30T14:04:07.966Z,45.60
2018-06-30T14:06:39.870Z,44.20
2018-06-30T14:09:13.650Z,46.40
2018-06-30T14:11:46.329Z,50.00
2018-06-30T14:14:18.430Z,46.60
2018-06-30T14:16:50.304Z,44.60
2018-06-30T14:19:22.573Z,40.00
2018-06-30T14:21:55.079Z,49.80
2018-06-30T14:24:28.072Z,44.60
2018-06-30T14:27:01.075Z,45.60
2018-06-30T14:29:34.017Z,50.20
2018-06-30T14:32:07.000Z,49.00
2018-06-30T14:34:40.107Z,46.80
2018-06-30T14:37:12.958Z,52.00
2018-06-30T14:39:45.940Z,46.80
2018-06-30T14:42:18.849Z,51.80
2018-06-30T14:44:52.559Z,52.00
2018-06-30T14:47:25.635Z,53.20
2018-06-30T14:49:58.223Z,51.60
2018-06-30T14:52:30.762Z,52.40
2018-06-30T14:55:03.762Z,57.40
2018-06-30T14:57:36.492Z,52.20
2018-06-30T15:00:09.995Z,55.20
2018-06-30T15:02:42.939Z,49.40
2018-06-30T15:05:16.157Z,48.20
2018-06-30T15:07:49.266Z,53.20
2018-06-30T15:10:22.100Z,51.40
2018-06-30T15:12:54.811Z,52.60
2018-06-30T15:15:27.501Z,51.40
2018-06-30T15:17:59.980Z,50.40
2018-06-30T15:20:32.778Z,54.00
2018-06-30T15:23:05.338Z,51.40
2018-06-30T15:25:38.070Z,52.00
2018-06-30T15:28:11.197Z,51.00
2018-06-30T15:30:44.460Z,48.20
2018-06-30T15:33:16.528Z,46.60
2018-06-30T15:35:50.075Z,50.80
2018-06-30T15:38:23.016Z,51.20
2018-06-30T15:40:56.193Z,46.40
2018-06-30T15:43:29.117Z,46.80
2018-06-30T15:46:02.633Z,45.40
2018-06-30T15:48:35.295Z,43.60
2018-06-30T15:51:08.301Z,48.20
2018-06-30T15:53:41.515Z,47.60
2018-06-30T15:56:14.917Z,49.40
2018-06-30T15:58:48.294Z,43.80
2018-06-30T16:01:22.644Z,44.00
2018-06-30T16:03:55.720Z,49.00
2018-06-30T16:06:29.199Z,45.40
2018-06-30T16:09:02.153Z,47.00
2018-06-30T16:11:34.815Z,46.60
2018-06-30T16:14:08.270Z,50.20
2018-06-30T16:16:42.052Z,47.00
2018-06-30T16:19:14.812Z,45.60
2018-06-30T16:21:47.319Z,48.40
2018-06-30T16:24:20.130Z,49.20
2018-06-30T16:26:53.721Z,46.60
2018-06-30T16:29:26.697Z,46.20
2018-06-30T16:31:59.287Z,43.00
2018-06-30T16:34:32.092Z,42.60
2018-06-30T16:37:05.232Z,44.00
2018-06-30T16:39:38.001Z,46.20
2018-06-30T16:42:10.981Z,45.20
2018-06-30T16:44:44.164Z,46.00
2018-06-30T16:47:17.277Z,39.00
2018-06-30T16:49:50.697Z,44.60
2018-06-30T16:52:23.773Z,48.40
2018-06-30T16:54:56.959Z,39.60
2018-06-30T16:57:29.484Z,45.40
2018-06-30T17:00:02.667Z,37.00
2018-06-30T17:02:35.358Z,43.20
2018-06-30T17:05:08.016Z,41.40
2018-06-30T17:07:40.543Z,28.20
2018-06-30T17:10:13.150Z,37.80
2018-06-30T17:12:47.078Z,36.40
2018-06-30T17:15:20.256Z,36.40
2018-06-30T17:17:53.314Z,36.20
2018-06-30T17:20:26.053Z,39.20
2018-06-30T17:22:58.986Z,40.80
2018-06-30T17:25:31.748Z,33.20
2018-06-30T17:28:04.234Z,38.40
2018-06-30T17:30:36.845Z,40.80
2018-06-30T17:33:10.182Z,34.00
2018-06-30T17:35:42.191Z,41.20
2018-06-30T17:38:15.512Z,39.80
2018-06-30T17:40:47.873Z,39.40
2018-06-30T17:43:20.929Z,39.60
2018-06-30T17:45:53.857Z,43.40
2018-06-30T17:48:26.536Z,36.20
2018-06-30T17:50:59.956Z,38.20
2018-06-30T17:53:32.104Z,40.60
2018-06-30T17:56:05.138Z,42.00
2018-06-30T17:58:38.379Z,36.80
2018-06-30T18:01:11.325Z,44.60
2018-06-30T18:03:44.596Z,40.40
2018-06-30T18:06:17.596Z,37.20
2018-06-30T18:08:50.375Z,37.60
2018-06-30T18:11:23.104Z,42.60
2018-06-30T18:13:55.983Z,45.00
2018-06-30T18:16:28.918Z,40.00
2018-06-30T18:19:01.021Z,37.80
2018-06-30T18:21:33.929Z,42.40
2018-06-30T18:24:07.243Z,42.00
2018-06-30T18:26:39.973Z,36.40
2018-06-30T18:29:13.108Z,34.80
2018-06-30T18:31:46.704Z,41.60
2018-06-30T18:34:19.195Z,37.60
2018-06-30T18:36:52.626Z,35.80
2018-06-30T18:39:30.152Z,35.40
2018-06-30T18:42:03.100Z,38.00
2018-06-30T18:44:35.948Z,37.20
2018-06-30T18:47:08.614Z,40.00
2018-06-30T18:49:41.431Z,37.00
2018-06-30T18:52:14.149Z,41.80
2018-06-30T18:54:47.145Z,35.80
2018-06-30T18:57:20.032Z,35.60
2018-06-30T18:59:53.323Z,31.20
2018-06-30T19:02:26.795Z,39.20
2018-06-30T19:05:00.767Z,34.40
2018-06-30T19:07:35.745Z,34.00
2018-06-30T19:10:09.314Z,33.40
2018-06-30T19:12:42.056Z,34.00
2018-06-30T19:15:14.976Z,34.00
2018-06-30T19:17:48.082Z,35.00
2018-06-30T19:20:21.050Z,34.00
2018-06-30T19:22:53.903Z,29.80
2018-06-30T19:25:27.485Z,35.40
2018-06-30T19:28:00.364Z,32.40
2018-06-30T19:30:33.147Z,35.40
2018-06-30T19:33:06.285Z,33.20
2018-06-30T19:35:38.944Z,35.60
2018-06-30T19:38:12.072Z,37.00
2018-06-30T19:40:44.854Z,37.00
2018-06-30T19:43:17.934Z,29.40
2018-06-30T19:45:51.191Z,26.20
2018-06-30T19:48:23.771Z,32.80
2018-06-30T19:50:56.929Z,34.60
2018-06-30T19:53:29.421Z,32.60
2018-06-30T19:56:02.364Z,34.20
2018-06-30T19:58:34.942Z,35.00
2018-06-30T20:01:07.626Z,31.60
2018-06-30T20:03:40.314Z,31.00
2018-06-30T20:06:13.321Z,29.20
2018-06-30T20:08:46.429Z,37.80
2018-06-30T20:11:19.242Z,33.60
2018-06-30T20:13:52.497Z,29.00
2018-06-30T20:16:25.982Z,26.60
2018-06-30T20:18:58.360Z,32.00
2018-06-30T20:21:32.055Z,30.40
2018-06-30T20:24:05.166Z,32.40
2018-06-30T20:26:38.182Z,32.20
2018-06-30T20:29:10.602Z,30.00
2018-06-30T20:31:43.174Z,31.00
2018-06-30T20:34:16.150Z,31.80
2018-06-30T20:36:48.881Z,36.20
2018-06-30T20:39:22.187Z,31.20
2018-06-30T20:41:55.484Z,31.20
2018-06-30T20:44:28.501Z,31.40
2018-06-30T20:47:00.971Z,30.80
2018-06-30T20:49:34.167Z,31.40
2018-06-30T20:52:07.168Z,33.40
2018-06-30T20:54:40.392Z,32.40
2018-06-30T20:57:13.729Z,31.40
2018-06-30T20:59:47.064Z,36.00
2018-06-30T21:02:20.546Z,32.60
2018-06-30T21:04:53.207Z,27.40
2018-06-30T21:07:26.236Z,35.60
2018-06-30T21:09:58.289Z,33.20
2018-06-30T21:12:31.059Z,37.20
2018-06-30T21:15:03.347Z,28.80
2018-06-30T21:17:36.431Z,29.40
2018-06-30T21:20:09.496Z,33.40
2018-06-30T21:22:42.550Z,31.00
2018-06-30T21:25:14.863Z,34.80
2018-06-30T21:27:48.250Z,31.20
2018-06-30T21:30:21.438Z,31.80
2018-06-30T21:32:54.699Z,29.80
2018-06-30T21:35:27.666Z,32.20
2018-06-30T21:38:00.957Z,30.40
2018-06-30T21:40:33.388Z,29.60
2018-06-30T21:43:06.304Z,32.80
2018-06-30T21:45:39.027Z,31.00
2018-06-30T21:48:12.242Z,35.80
2018-06-30T21:50:45.192Z,37.00
2018-06-30T21:53:18.036Z,35.20
2018-06-30T21:55:50.082Z,32.80
2018-06-30T21:58:22.550Z,28.80
2018-06-30T22:01:00.596Z,32.80
2018-06-30T22:03:33.923Z,39.40
2018-06-30T22:06:06.849Z,33.80
2018-06-30T22:08:39.516Z,34.40
2018-06-30T22:11:12.712Z,37.40
2018-06-30T22:13:45.469Z,37.00
2018-06-30T22:16:18.545Z,35.40
2018-06-30T22:18:51.268Z,31.20
2018-06-30T22:21:24.058Z,29.40
2018-06-30T22:23:57.093Z,35.00
2018-06-30T22:26:29.596Z,34.00
2018-06-30T22:29:03.007Z,33.00
2018-06-30T22:31:35.869Z,36.00
2018-06-30T22:34:08.764Z,37.20
2018-06-30T22:36:41.544Z,39.40
2018-06-30T22:39:15.126Z,38.20
2018-06-30T22:41:48.305Z,35.40
2018-06-30T22:44:20.990Z,31.60
2018-06-30T22:46:53.320Z,38.20
2018-06-30T22:49:25.614Z,33.80
2018-06-30T22:51:58.559Z,33.60
2018-06-30T22:54:31.755Z,38.20
2018-06-30T22:57:03.767Z,40.40
2018-06-30T22:59:36.929Z,34.80
2018-06-30T23:02:09.039Z,36.60
2018-06-30T23:04:42.113Z,39.60
2018-06-30T23:07:14.651Z,34.20
2018-06-30T23:09:47.520Z,34.80
2018-06-30T23:12:20.749Z,33.60
2018-06-30T23:14:53.762Z,32.60
2018-06-30T23:17:26.111Z,33.40
2018-06-30T23:19:59.155Z,36.40
2018-06-30T23:22:43.996Z,31.80
2018-06-30T23:25:17.288Z,34.00
2018-06-30T23:27:50.233Z,35.80
2018-06-30T23:30:23.594Z,37.60
2018-06-30T23:32:56.546Z,41.20
2018-06-30T23:35:30.666Z,40.40
2018-06-30T23:38:04.338Z,38.80
2018-06-30T23:40:37.822Z,41.20
2018-06-30T23:43:10.858Z,36.00
2018-06-30T23:45:43.592Z,41.00
2018-06-30T23:48:16.514Z,41.20
2018-06-30T23:50:49.989Z,40.60
2018-06-30T23:53:22.294Z,38.20
2018-06-30T23:55:55.406Z,32.20
2018-06-30T23:58:28.524Z,38.60
